Aviation Digital Data Service (ADDS)

Output produced by METARs form (1909 UTC 31 July 2021)
found at http://www.aviationweather.gov/metar/data/
 
METAR text: LFLU 311800Z AUTO 36012KT 9999 +RA FEW036/// BKN064/// OVC082/// ///TCU 18/16 Q1011
Conditions at: LFLU (VALENCE-CHABEUIL, FR) observed 1800 UTC 31 July 2021
Temperature: 18.0°C (64°F)
Dewpoint: 16.0°C (61°F) [RH = 88%]
Pressure (altimeter): 29.85 inches Hg (1011.0 mb)
Winds: from the N (360 degrees) at 14 MPH (12 knots; 6.2 m/s)
Visibility: 6 or more miles (10+ km)
Ceiling: 6400 feet AGL
Clouds: few clouds at 3600 feet AGL
broken clouds at 6400 feet AGL
overcast cloud deck at 8200 feet AGL
Weather: +RA  (heavy rain)